Terminal Aerodrome Forecast
Issued by NWS Cleveland, OH

Home | Current Version | Previous Version | Text Only | Print | Product List | Glossary On
Versions: 1 2 3 4 5 6 7 8 9 10 11 12 13 14 15 16 17 18 19
000
FTUS41 KCLE 241650 AAB
TAFTOL
TAF AMD
KTOL 241650Z 2417/2512 05012KT P6SM -SHRA OVC015
      TEMPO 2417/2420 3SM -TSRA OVC025CB
     FM242000 05012KT 5SM -SHRA OVC025
     FM242200 05012G20KT 4SM -SHRA OVC015
     FM250300 05012KT 3SM -SHRA OVC008=

USA.gov is the U.S. government's official web portal to all federal, state and local government web resources and services.